createdAt,value
2022-11-19T00:01:24.756Z,0.51
2022-11-19T00:03:53.152Z,0.55
2022-11-19T00:06:22.283Z,0.53
2022-11-19T00:08:49.442Z,0.54
2022-11-19T00:11:37.455Z,0.56
2022-11-19T00:14:04.515Z,0.55
2022-11-19T00:16:31.035Z,0.55
2022-11-19T00:18:57.703Z,0.52
2022-11-19T00:21:24.344Z,0.49
2022-11-19T00:23:54.356Z,0.51
2022-11-19T00:26:21.817Z,0.50
2022-11-19T00:28:48.555Z,0.44
2022-11-19T00:31:16.300Z,0.41
2022-11-19T00:33:44.519Z,0.46
2022-11-19T00:36:15.311Z,0.49
2022-11-19T00:38:42.420Z,0.45
2022-11-19T00:41:09.133Z,0.50
2022-11-19T00:43:47.982Z,0.51
2022-11-19T00:46:27.324Z,0.62
2022-11-19T00:48:55.811Z,0.65
2022-11-19T00:51:23.730Z,0.65
2022-11-19T00:53:51.089Z,0.68
2022-11-19T00:56:20.477Z,0.74
2022-11-19T00:58:47.966Z,0.72
2022-11-19T01:01:16.331Z,0.74
2022-11-19T01:03:46.023Z,0.73
2022-11-19T01:06:18.669Z,0.75
2022-11-19T01:08:47.463Z,0.78
2022-11-19T01:11:18.629Z,0.77
2022-11-19T01:13:45.596Z,0.81
2022-11-19T01:16:15.886Z,0.78
2022-11-19T01:18:43.815Z,0.79
2022-11-19T01:21:11.643Z,0.84
2022-11-19T01:23:40.436Z,0.84
2022-11-19T01:26:07.548Z,0.86
2022-11-19T01:28:35.060Z,0.87
2022-11-19T01:31:13.843Z,0.90
2022-11-19T01:33:40.859Z,0.91
2022-11-19T01:36:18.668Z,0.91
2022-11-19T01:38:50.758Z,0.97
2022-11-19T01:41:23.389Z,1.00
2022-11-19T01:43:52.594Z,0.99
2022-11-19T01:46:21.944Z,0.99
2022-11-19T01:48:53.932Z,1.02
2022-11-19T01:51:35.630Z,0.96
2022-11-19T01:54:08.625Z,1.02
2022-11-19T01:56:36.383Z,1.00
2022-11-19T01:59:15.923Z,0.98
2022-11-19T02:01:44.063Z,1.04
2022-11-19T02:04:11.808Z,1.09
2022-11-19T02:06:38.938Z,1.07
2022-11-19T02:09:05.495Z,1.08
2022-11-19T02:11:41.053Z,1.05
2022-11-19T02:14:29.324Z,1.11
2022-11-19T02:17:26.551Z,1.08
2022-11-19T02:20:19.919Z,1.07
2022-11-19T02:23:31.801Z,1.06
2022-11-19T02:26:35.639Z,1.10
2022-11-19T02:29:20.867Z,1.01
2022-11-19T02:32:04.145Z,1.08
2022-11-19T02:34:41.408Z,1.07
2022-11-19T02:37:19.547Z,1.05
2022-11-19T02:40:03.193Z,1.03
2022-11-19T02:42:33.519Z,1.03
2022-11-19T02:45:08.636Z,1.10
2022-11-19T02:47:40.319Z,1.13
2022-11-19T02:50:12.825Z,1.15
2022-11-19T02:52:43.840Z,1.11
2022-11-19T02:55:14.800Z,1.08
2022-11-19T02:57:48.552Z,1.09
2022-11-19T03:00:33.794Z,1.07
2022-11-19T03:03:28.611Z,1.18
2022-11-19T03:06:03.604Z,1.15
2022-11-19T03:08:30.405Z,1.14
2022-11-19T03:10:56.942Z,1.18
2022-11-19T03:13:45.398Z,1.19
2022-11-19T03:16:42.883Z,1.23
2022-11-19T03:19:23.095Z,1.17
2022-11-19T03:21:58.387Z,1.15
2022-11-19T03:24:32.865Z,1.25
2022-11-19T03:27:35.437Z,1.30
2022-11-19T03:30:03.392Z,1.27
2022-11-19T03:32:35.265Z,1.26
2022-11-19T03:35:07.556Z,1.23
2022-11-19T03:37:37.832Z,1.21
2022-11-19T03:40:08.532Z,1.23
2022-11-19T03:42:36.816Z,1.29
2022-11-19T03:45:10.715Z,1.46
2022-11-19T03:47:40.291Z,1.17
2022-11-19T03:50:35.142Z,1.14
2022-11-19T03:53:04.604Z,1.07
2022-11-19T03:55:35.410Z,0.98
2022-11-19T03:58:06.980Z,0.98
2022-11-19T04:00:33.793Z,0.97
2022-11-19T04:03:00.823Z,0.89
2022-11-19T04:05:27.488Z,0.85
2022-11-19T04:07:54.078Z,0.81
2022-11-19T04:10:20.806Z,0.87
2022-11-19T04:12:47.716Z,0.93
2022-11-19T04:15:15.250Z,0.93
2022-11-19T04:17:41.993Z,0.91
2022-11-19T04:20:09.450Z,0.85
2022-11-19T04:22:35.977Z,0.84
2022-11-19T04:25:02.605Z,0.83
2022-11-19T04:27:29.220Z,0.86
2022-11-19T04:29:55.914Z,0.78
2022-11-19T04:32:22.455Z,0.80
2022-11-19T04:34:49.546Z,0.86
2022-11-19T04:37:16.155Z,0.81
2022-11-19T04:39:42.852Z,0.79
2022-11-19T04:42:09.432Z,0.83
2022-11-19T04:44:35.954Z,0.96
2022-11-19T04:47:02.659Z,0.99
2022-11-19T04:49:29.224Z,1.07
2022-11-19T04:51:56.022Z,1.04
2022-11-19T04:54:22.748Z,0.89
2022-11-19T04:56:49.379Z,0.85
2022-11-19T04:59:15.907Z,0.93
2022-11-19T05:01:42.552Z,1.22
2022-11-19T05:04:10.062Z,1.15
2022-11-19T05:06:36.645Z,0.91
2022-11-19T05:09:03.287Z,0.86
2022-11-19T05:11:29.845Z,1.11
2022-11-19T05:13:56.641Z,0.94
2022-11-19T05:16:23.282Z,0.81
2022-11-19T05:18:49.846Z,0.81
2022-11-19T05:21:16.522Z,0.86
2022-11-19T05:23:43.140Z,0.85
2022-11-19T05:26:09.759Z,0.88
2022-11-19T05:28:40.064Z,0.83
2022-11-19T05:31:07.628Z,0.87
2022-11-19T05:33:34.742Z,0.92
2022-11-19T05:36:02.450Z,0.99
2022-11-19T05:38:29.314Z,0.94
2022-11-19T05:40:55.891Z,0.96
2022-11-19T05:43:22.535Z,0.95
2022-11-19T05:45:49.261Z,0.93
2022-11-19T05:48:15.799Z,0.97
2022-11-19T05:50:42.988Z,1.04
2022-11-19T05:53:09.949Z,1.06
2022-11-19T05:55:36.593Z,1.02
2022-11-19T05:58:03.544Z,1.04
2022-11-19T06:00:30.352Z,1.12
2022-11-19T06:02:56.927Z,1.15
2022-11-19T06:05:23.745Z,1.30
2022-11-19T06:07:50.527Z,1.13
2022-11-19T06:10:17.222Z,1.11
2022-11-19T06:12:46.837Z,1.33
2022-11-19T06:15:14.360Z,1.17
2022-11-19T06:17:41.482Z,1.32
2022-11-19T06:20:10.912Z,1.18
2022-11-19T06:22:38.521Z,1.16
2022-11-19T06:25:06.026Z,1.12
2022-11-19T06:27:32.568Z,1.23
2022-11-19T06:29:59.255Z,1.08
2022-11-19T06:32:25.899Z,1.33
2022-11-19T06:34:52.507Z,1.22
2022-11-19T06:37:19.168Z,1.38
2022-11-19T06:39:45.720Z,1.13
2022-11-19T06:42:30.951Z,1.12
2022-11-19T06:44:57.555Z,1.24
2022-11-19T06:47:24.151Z,1.15
2022-11-19T06:49:50.930Z,1.31
2022-11-19T06:52:17.459Z,1.04
2022-11-19T06:54:44.037Z,1.36
2022-11-19T06:57:10.668Z,1.22
2022-11-19T06:59:39.572Z,1.12
2022-11-19T07:02:07.267Z,1.39
2022-11-19T07:04:33.879Z,1.15
2022-11-19T07:07:00.519Z,1.33
2022-11-19T07:09:27.318Z,1.34
2022-11-19T07:11:54.158Z,1.17
2022-11-19T07:14:20.652Z,1.28
2022-11-19T07:16:47.266Z,1.13
2022-11-19T07:19:13.856Z,1.38
2022-11-19T07:21:40.424Z,1.27
2022-11-19T07:24:09.328Z,1.29
2022-11-19T07:26:36.908Z,1.18
2022-11-19T07:29:12.619Z,1.39
2022-11-19T07:31:39.286Z,1.17
2022-11-19T07:34:10.024Z,1.09
2022-11-19T07:36:40.739Z,1.21
2022-11-19T07:39:07.449Z,1.30
2022-11-19T07:41:52.888Z,1.21
2022-11-19T07:44:19.691Z,1.18
2022-11-19T07:46:46.310Z,1.18
2022-11-19T07:49:15.666Z,1.21
2022-11-19T07:51:44.647Z,1.24
2022-11-19T07:54:12.854Z,1.24
2022-11-19T07:56:39.912Z,1.45
2022-11-19T07:59:06.682Z,1.30
2022-11-19T08:01:33.340Z,1.28
2022-11-19T08:04:00.356Z,1.27
2022-11-19T08:06:28.622Z,1.30
2022-11-19T08:08:58.760Z,1.34
2022-11-19T08:11:25.474Z,1.38
2022-11-19T08:13:52.816Z,1.41
2022-11-19T08:16:38.584Z,1.64
2022-11-19T08:19:09.463Z,1.39
2022-11-19T08:21:39.975Z,1.26
2022-11-19T08:24:07.664Z,1.30
2022-11-19T08:26:34.623Z,1.36
2022-11-19T08:29:01.684Z,1.54
2022-11-19T08:31:28.691Z,1.49
2022-11-19T08:33:58.126Z,1.44
2022-11-19T08:36:24.847Z,1.57
2022-11-19T08:38:51.399Z,1.67
2022-11-19T08:41:36.250Z,1.51
2022-11-19T08:44:03.378Z,1.44
2022-11-19T08:46:30.044Z,1.49
2022-11-19T08:48:58.788Z,1.70
2022-11-19T08:51:25.466Z,1.48
2022-11-19T08:53:55.069Z,1.41
2022-11-19T08:56:22.155Z,1.47
2022-11-19T08:58:49.345Z,1.38
2022-11-19T09:01:17.479Z,1.48
2022-11-19T09:03:44.189Z,1.57
2022-11-19T09:06:11.845Z,1.46
2022-11-19T09:08:39.006Z,1.54
2022-11-19T09:11:20.311Z,1.54
2022-11-19T09:13:47.294Z,1.46
2022-11-19T09:16:14.433Z,1.47
2022-11-19T09:18:42.234Z,1.71
2022-11-19T09:21:11.860Z,1.54
2022-11-19T09:23:39.884Z,1.53
2022-11-19T09:26:13.556Z,1.72
2022-11-19T09:28:40.913Z,1.71
2022-11-19T09:31:13.703Z,1.78
2022-11-19T09:33:42.270Z,1.82
2022-11-19T09:36:10.303Z,1.75
2022-11-19T09:38:37.166Z,1.85
2022-11-19T09:41:21.517Z,1.64
2022-11-19T09:44:20.937Z,1.66
2022-11-19T09:47:12.458Z,1.65
2022-11-19T09:49:46.902Z,1.67
2022-11-19T09:52:20.205Z,1.68
2022-11-19T09:54:51.517Z,1.69
2022-11-19T09:57:51.025Z,1.60
2022-11-19T10:00:21.868Z,1.66
2022-11-19T10:02:48.852Z,1.66
2022-11-19T10:05:30.950Z,1.70
2022-11-19T10:08:03.425Z,1.92
2022-11-19T10:10:51.955Z,1.67
2022-11-19T10:14:01.660Z,1.72
2022-11-19T10:16:46.610Z,1.67
2022-11-19T10:19:24.373Z,1.78
2022-11-19T10:22:10.313Z,1.81
2022-11-19T10:24:59.447Z,1.81
2022-11-19T10:27:29.598Z,1.85
2022-11-19T10:30:00.220Z,1.86
2022-11-19T10:32:35.870Z,1.85
2022-11-19T10:35:09.011Z,1.89
2022-11-19T10:37:40.859Z,1.87
2022-11-19T10:40:21.360Z,1.92
2022-11-19T10:42:54.035Z,1.99
2022-11-19T10:45:28.585Z,1.87
2022-11-19T10:48:20.527Z,1.86
2022-11-19T10:50:47.276Z,1.99
2022-11-19T10:53:25.080Z,1.97
2022-11-19T10:55:56.240Z,2.08
2022-11-19T10:58:27.443Z,2.13
2022-11-19T11:00:55.807Z,2.35
2022-11-19T11:03:43.678Z,2.31
2022-11-19T11:06:10.986Z,2.21
2022-11-19T11:08:54.509Z,2.25
2022-11-19T11:11:53.214Z,2.04
2022-11-19T11:14:40.972Z,2.15
2022-11-19T11:17:19.728Z,2.13
2022-11-19T11:20:01.508Z,2.22
2022-11-19T11:22:28.489Z,2.11
2022-11-19T11:24:55.110Z,2.20
2022-11-19T11:27:27.242Z,2.07
2022-11-19T11:30:14.041Z,1.94
2022-11-19T11:32:41.664Z,1.99
2022-11-19T11:35:34.334Z,1.96
2022-11-19T11:38:02.546Z,1.94
2022-11-19T11:40:30.193Z,1.99
2022-11-19T11:42:57.402Z,1.96
2022-11-19T11:45:35.056Z,2.04
2022-11-19T11:48:21.800Z,2.02
2022-11-19T11:50:48.707Z,2.00
2022-11-19T11:53:27.331Z,2.04
2022-11-19T11:56:04.896Z,2.07
2022-11-19T11:58:33.940Z,2.07
2022-11-19T12:01:18.378Z,2.05
2022-11-19T12:03:59.318Z,2.08
2022-11-19T12:06:39.604Z,2.18
2022-11-19T12:09:22.167Z,2.33
2022-11-19T12:12:03.665Z,2.38
2022-11-19T12:14:36.666Z,2.49
2022-11-19T12:17:35.059Z,2.40
2022-11-19T12:20:22.605Z,2.83
2022-11-19T12:23:21.858Z,2.67
2022-11-19T12:25:57.744Z,2.85
2022-11-19T12:28:24.368Z,2.63
2022-11-19T12:31:10.696Z,2.77
2022-11-19T12:33:46.651Z,2.67
2022-11-19T12:36:40.634Z,2.63
2022-11-19T12:39:45.548Z,2.50
2022-11-19T12:42:33.657Z,2.51
2022-11-19T12:45:36.181Z,2.47
2022-11-19T12:48:21.479Z,2.56
2022-11-19T12:51:12.867Z,2.54
2022-11-19T12:54:00.793Z,2.51
2022-11-19T12:56:48.040Z,2.52
2022-11-19T12:59:20.880Z,2.60
2022-11-19T13:01:52.635Z,2.76
2022-11-19T13:04:27.450Z,2.82
2022-11-19T13:06:57.893Z,2.65
2022-11-19T13:09:42.202Z,2.63
2022-11-19T13:12:16.948Z,2.57
2022-11-19T13:15:03.486Z,2.42
2022-11-19T13:17:37.293Z,2.62
2022-11-19T13:20:15.201Z,2.53
2022-11-19T13:22:48.024Z,2.35
2022-11-19T13:25:36.165Z,2.58
2022-11-19T13:28:08.330Z,2.61
2022-11-19T13:30:38.330Z,2.54
2022-11-19T13:33:18.832Z,2.67
2022-11-19T13:35:48.463Z,2.54
2022-11-19T13:38:44.345Z,2.71
2022-11-19T13:41:30.571Z,2.64
2022-11-19T13:44:17.538Z,2.77
2022-11-19T13:46:48.700Z,2.67
2022-11-19T13:49:41.559Z,2.82
2022-11-19T13:52:25.142Z,2.65
2022-11-19T13:54:51.895Z,2.76
2022-11-19T13:57:34.822Z,2.68
2022-11-19T14:00:04.023Z,2.60
2022-11-19T14:02:41.147Z,2.55
2022-11-19T14:05:26.561Z,2.55
2022-11-19T14:07:53.140Z,2.47
2022-11-19T14:10:38.037Z,2.51
2022-11-19T14:13:17.805Z,2.37
2022-11-19T14:16:22.390Z,2.57
2022-11-19T14:19:29.330Z,2.52
2022-11-19T14:22:16.452Z,2.50
2022-11-19T14:25:04.977Z,2.25
2022-11-19T14:27:33.361Z,2.32
2022-11-19T14:30:14.079Z,2.43
2022-11-19T14:32:47.462Z,2.26
2022-11-19T14:35:31.027Z,2.35
2022-11-19T14:38:29.878Z,2.34
2022-11-19T14:41:24.487Z,2.30
2022-11-19T14:44:10.075Z,2.29
2022-11-19T14:46:40.443Z,2.30
2022-11-19T14:49:26.892Z,2.11
2022-11-19T14:51:57.652Z,2.26
2022-11-19T14:54:35.986Z,2.28
2022-11-19T14:57:41.164Z,2.15
2022-11-19T15:00:29.614Z,2.19
2022-11-19T15:02:59.956Z,1.97
2022-11-19T15:05:33.196Z,1.90
2022-11-19T15:08:18.338Z,2.26
2022-11-19T15:11:12.192Z,2.17
2022-11-19T15:13:43.888Z,1.81
2022-11-19T15:16:22.666Z,2.08
2022-11-19T15:19:21.607Z,1.90
2022-11-19T15:21:56.556Z,1.88
2022-11-19T15:24:37.156Z,2.19
2022-11-19T15:27:41.589Z,1.86
2022-11-19T15:30:21.109Z,2.06
2022-11-19T15:32:50.803Z,1.92
2022-11-19T15:35:57.322Z,2.01
2022-11-19T15:38:24.069Z,1.98
2022-11-19T15:40:56.081Z,2.00
2022-11-19T15:43:43.813Z,2.13
2022-11-19T15:46:20.334Z,1.81
2022-11-19T15:49:14.893Z,1.91
2022-11-19T15:51:56.597Z,1.90
2022-11-19T15:54:31.304Z,1.66
2022-11-19T15:57:06.082Z,1.63
2022-11-19T15:59:36.511Z,1.84
2022-11-19T16:02:07.069Z,1.79
2022-11-19T16:04:38.986Z,1.59
2022-11-19T16:07:10.153Z,1.55
2022-11-19T16:09:40.738Z,1.56
2022-11-19T16:12:37.409Z,1.57
2022-11-19T16:15:42.810Z,1.92
2022-11-19T16:18:18.515Z,1.66
2022-11-19T16:20:48.585Z,1.58
2022-11-19T16:23:20.123Z,1.63
2022-11-19T16:25:47.747Z,1.82
2022-11-19T16:28:18.291Z,1.64
2022-11-19T16:30:53.913Z,1.52
2022-11-19T16:33:27.052Z,1.57
2022-11-19T16:36:17.761Z,1.64
2022-11-19T16:38:50.262Z,1.62
2022-11-19T16:41:38.707Z,1.59
2022-11-19T16:44:09.627Z,1.57
2022-11-19T16:46:37.796Z,1.63
2022-11-19T16:49:12.586Z,1.56
2022-11-19T16:52:00.613Z,1.59
2022-11-19T16:54:49.965Z,1.59
2022-11-19T16:57:23.552Z,1.60
2022-11-19T16:59:53.053Z,1.66
2022-11-19T17:02:22.527Z,1.66
2022-11-19T17:04:55.511Z,1.71
2022-11-19T17:07:26.325Z,2.00
2022-11-19T17:10:31.406Z,2.19
2022-11-19T17:13:02.633Z,2.00
2022-11-19T17:15:38.755Z,1.98
2022-11-19T17:18:17.457Z,2.21
2022-11-19T17:20:44.053Z,2.02
2022-11-19T17:23:19.221Z,1.81
2022-11-19T17:25:58.154Z,1.77
2022-11-19T17:28:36.020Z,2.01
2022-11-19T17:31:15.584Z,1.83
2022-11-19T17:34:00.458Z,1.71
2022-11-19T17:36:31.731Z,1.88
2022-11-19T17:38:58.689Z,2.03
2022-11-19T17:41:46.957Z,2.03
2022-11-19T17:44:31.715Z,1.79
2022-11-19T17:46:58.776Z,1.75
2022-11-19T17:49:25.366Z,1.70
2022-11-19T17:51:52.573Z,1.66
2022-11-19T17:54:19.792Z,1.72
2022-11-19T17:56:49.159Z,1.67
2022-11-19T17:59:15.766Z,1.69
2022-11-19T18:01:42.594Z,1.74
2022-11-19T18:04:12.473Z,1.72
2022-11-19T18:06:39.494Z,1.64
2022-11-19T18:09:06.260Z,1.65
2022-11-19T18:11:33.061Z,1.68
2022-11-19T18:14:01.936Z,1.70
2022-11-19T18:16:34.197Z,1.72
2022-11-19T18:19:00.938Z,1.88
2022-11-19T18:21:27.697Z,2.06
2022-11-19T18:23:57.063Z,1.90
2022-11-19T18:26:24.746Z,1.76
2022-11-19T18:28:51.377Z,2.01
2022-11-19T18:31:21.530Z,1.93
2022-11-19T18:33:49.280Z,1.74
2022-11-19T18:36:17.231Z,1.73
2022-11-19T18:38:46.945Z,2.08
2022-11-19T18:41:23.325Z,1.93
2022-11-19T18:44:08.436Z,1.83
2022-11-19T18:46:35.216Z,2.09
2022-11-19T18:49:02.428Z,2.14
2022-11-19T18:51:36.375Z,2.13
2022-11-19T18:54:05.052Z,2.16
2022-11-19T18:56:31.635Z,1.84
2022-11-19T18:59:04.359Z,1.98
2022-11-19T19:01:31.652Z,1.92
2022-11-19T19:03:58.388Z,1.62
2022-11-19T19:06:25.499Z,1.48
2022-11-19T19:08:52.094Z,1.49
2022-11-19T19:11:37.148Z,1.50
2022-11-19T19:14:04.170Z,1.44
2022-11-19T19:16:30.826Z,1.52
2022-11-19T19:18:57.551Z,1.64
2022-11-19T19:21:24.738Z,1.92
2022-11-19T19:23:51.420Z,1.82
2022-11-19T19:26:19.875Z,1.92
2022-11-19T19:28:51.867Z,1.94
2022-11-19T19:31:22.840Z,1.87
2022-11-19T19:33:49.927Z,2.05
2022-11-19T19:36:18.898Z,1.85
2022-11-19T19:38:46.011Z,1.90
2022-11-19T19:41:25.374Z,1.69
2022-11-19T19:43:54.157Z,1.53
2022-11-19T19:46:22.994Z,1.85
2022-11-19T19:48:52.668Z,1.46
2022-11-19T19:51:20.912Z,1.31
2022-11-19T19:53:48.531Z,1.41
2022-11-19T19:56:20.703Z,1.44
2022-11-19T19:58:49.216Z,1.77
2022-11-19T20:01:18.245Z,1.71
2022-11-19T20:03:44.992Z,1.52
2022-11-19T20:06:13.824Z,1.73
2022-11-19T20:08:42.082Z,1.63
2022-11-19T20:11:25.940Z,1.29
2022-11-19T20:13:54.051Z,1.21
2022-11-19T20:16:26.677Z,1.16
2022-11-19T20:18:55.134Z,1.18
2022-11-19T20:21:38.253Z,1.12
2022-11-19T20:24:12.403Z,1.12
2022-11-19T20:26:40.881Z,1.02
2022-11-19T20:29:11.527Z,1.08
2022-11-19T20:31:40.313Z,1.07
2022-11-19T20:34:08.730Z,1.09
2022-11-19T20:36:37.419Z,0.99
2022-11-19T20:39:09.647Z,0.94
2022-11-19T20:41:54.921Z,0.90
2022-11-19T20:44:27.038Z,0.88
2022-11-19T20:47:02.959Z,0.98
2022-11-19T20:49:35.351Z,1.00
2022-11-19T20:52:03.590Z,0.91
2022-11-19T20:54:30.290Z,0.97
2022-11-19T20:56:59.841Z,0.91
2022-11-19T20:59:27.806Z,0.91
2022-11-19T21:01:56.031Z,0.91
2022-11-19T21:04:24.793Z,1.00
2022-11-19T21:06:54.372Z,1.31
2022-11-19T21:09:21.492Z,1.17
2022-11-19T21:11:48.596Z,0.96
2022-11-19T21:14:15.260Z,0.91
2022-11-19T21:16:41.824Z,0.93
2022-11-19T21:19:12.435Z,0.98
2022-11-19T21:21:39.066Z,0.96
2022-11-19T21:24:07.185Z,1.01
2022-11-19T21:26:34.095Z,1.08
2022-11-19T21:29:00.740Z,1.23
2022-11-19T21:31:42.377Z,1.43
2022-11-19T21:34:11.623Z,1.60
2022-11-19T21:36:42.433Z,1.70
2022-11-19T21:39:14.692Z,1.82
2022-11-19T21:41:44.920Z,1.91
2022-11-19T21:44:14.271Z,1.66
2022-11-19T21:46:44.848Z,1.48
2022-11-19T21:49:11.422Z,1.71
2022-11-19T21:51:38.194Z,1.53
2022-11-19T21:54:07.308Z,1.45
2022-11-19T21:56:38.601Z,1.40
2022-11-19T21:59:06.984Z,1.43
2022-11-19T22:01:35.690Z,1.51
2022-11-19T22:04:02.573Z,1.54
2022-11-19T22:06:33.426Z,1.52
2022-11-19T22:09:00.089Z,1.52
2022-11-19T22:11:29.956Z,1.52
2022-11-19T22:14:02.174Z,1.55
2022-11-19T22:16:30.495Z,1.54
2022-11-19T22:18:57.213Z,1.53
2022-11-19T22:21:23.950Z,1.49
2022-11-19T22:23:52.568Z,1.51
2022-11-19T22:26:19.200Z,1.54
2022-11-19T22:28:46.545Z,1.57
2022-11-19T22:31:14.235Z,1.59
2022-11-19T22:33:41.440Z,1.57
2022-11-19T22:36:10.596Z,1.58
2022-11-19T22:38:38.485Z,1.56
2022-11-19T22:41:08.240Z,1.52
2022-11-19T22:43:36.341Z,1.57
2022-11-19T22:46:06.556Z,1.59
2022-11-19T22:48:34.641Z,1.60
2022-11-19T22:51:23.779Z,1.52
2022-11-19T22:53:51.824Z,1.45
2022-11-19T22:56:24.326Z,1.41
2022-11-19T22:58:52.706Z,1.42
2022-11-19T23:01:24.979Z,1.36
2022-11-19T23:03:52.854Z,1.38
2022-11-19T23:06:19.648Z,1.44
2022-11-19T23:08:46.828Z,1.44
2022-11-19T23:11:14.940Z,1.37
2022-11-19T23:13:44.257Z,1.32
2022-11-19T23:16:13.669Z,1.32
2022-11-19T23:19:01.742Z,1.21
2022-11-19T23:21:31.452Z,1.19
2022-11-19T23:23:59.902Z,1.22
2022-11-19T23:26:31.069Z,1.22
2022-11-19T23:28:58.100Z,1.02
2022-11-19T23:31:27.589Z,0.91
2022-11-19T23:33:58.994Z,0.83
2022-11-19T23:36:45.787Z,0.76
2022-11-19T23:39:18.297Z,0.79
2022-11-19T23:41:45.500Z,0.73
2022-11-19T23:44:12.260Z,0.70
2022-11-19T23:46:39.121Z,0.68
2022-11-19T23:49:05.943Z,0.58
2022-11-19T23:51:35.631Z,0.55
2022-11-19T23:54:02.896Z,0.56
2022-11-19T23:56:31.772Z,0.54
2022-11-19T23:59:00.600Z,0.63
